RA727 UUEE-UUML
Flight info
| Callsign | RA727 |
|---|---|
| Flight time | 0h 37m |
| Altitude | 3000 |
| Route | ESEBE DUZZU ULGIV OKUSE NIZVO VAGDE TOSLA |
| Aircraft | DA62/L-SDFGRY/C |
Departure
| Time | 2026-04-30 12:14 |
|---|---|
| Airport | Sheremetyevo International Airport (UUEE) |
Arrival
| Time | 2026-04-30 12:51 |
|---|---|
| Airport | Severka Airfield (UUML) |
| Time | Latitude | Longitude | Altitude | Speed | Heading |
|---|---|---|---|---|---|
| 2026-04-30 12:14 | 55.92253 | 37.38909 | 2999 ft | 170 kts | 185° |
| 2026-04-30 12:14 | 55.91038 | 37.38952 | 3012 ft | 184 kts | 179° |
| 2026-04-30 12:14 | 55.89730 | 37.39060 | 3007 ft | 191 kts | 178° |
| 2026-04-30 12:15 | 55.88384 | 37.39157 | 3004 ft | 195 kts | 179° |
| 2026-04-30 12:15 | 55.87026 | 37.39245 | 3007 ft | 197 kts | 180° |
| 2026-04-30 12:15 | 55.85646 | 37.39327 | 3007 ft | 198 kts | 179° |
| 2026-04-30 12:15 | 55.84277 | 37.39417 | 2995 ft | 195 kts | 179° |
| 2026-04-30 12:16 | 55.82923 | 37.39497 | 3002 ft | 195 kts | 179° |
| 2026-04-30 12:16 | 55.81569 | 37.39581 | 2997 ft | 194 kts | 179° |
| 2026-04-30 12:16 | 55.80220 | 37.39660 | 3001 ft | 195 kts | 179° |
| 2026-04-30 12:16 | 55.78861 | 37.39761 | 2996 ft | 195 kts | 179° |
| 2026-04-30 12:17 | 55.76152 | 37.39918 | 2996 ft | 195 kts | 179° |
| 2026-04-30 12:17 | 55.74801 | 37.40004 | 3004 ft | 195 kts | 179° |
| 2026-04-30 12:17 | 55.73443 | 37.40089 | 3003 ft | 194 kts | 179° |
| 2026-04-30 12:18 | 55.72084 | 37.40171 | 3004 ft | 196 kts | 179° |
| 2026-04-30 12:18 | 55.70723 | 37.40258 | 3001 ft | 196 kts | 180° |
| 2026-04-30 12:18 | 55.69356 | 37.40329 | 3002 ft | 197 kts | 178° |
| 2026-04-30 12:18 | 55.67991 | 37.40429 | 3000 ft | 196 kts | 179° |
| 2026-04-30 12:19 | 55.66627 | 37.40507 | 3005 ft | 196 kts | 179° |
| 2026-04-30 12:19 | 55.65270 | 37.40456 | 2999 ft | 195 kts | 195° |
| 2026-04-30 12:19 | 55.64047 | 37.39577 | 2999 ft | 194 kts | 194° |
| 2026-04-30 12:19 | 55.62839 | 37.39891 | 2989 ft | 158 kts | 146° |
| 2026-04-30 12:20 | 55.62262 | 37.41402 | 2987 ft | 146 kts | 101° |
| 2026-04-30 12:20 | 55.62141 | 37.43178 | 2987 ft | 147 kts | 89° |
| 2026-04-30 12:20 | 55.61895 | 37.44927 | 2997 ft | 149 kts | 110° |
| 2026-04-30 12:20 | 55.61480 | 37.46609 | 3001 ft | 150 kts | 112° |
| 2026-04-30 12:21 | 55.61045 | 37.48299 | 2995 ft | 151 kts | 112° |
| 2026-04-30 12:21 | 55.60610 | 37.49989 | 2999 ft | 152 kts | 113° |
| 2026-04-30 12:21 | 55.60174 | 37.51672 | 2993 ft | 150 kts | 112° |
| 2026-04-30 12:21 | 55.59746 | 37.53342 | 2997 ft | 150 kts | 112° |
| 2026-04-30 12:22 | 55.59310 | 37.55006 | 2986 ft | 148 kts | 112° |
| 2026-04-30 12:22 | 55.58886 | 37.56646 | 2987 ft | 146 kts | 112° |
| 2026-04-30 12:22 | 55.58465 | 37.58276 | 2986 ft | 145 kts | 112° |
| 2026-04-30 12:22 | 55.58042 | 37.59893 | 2989 ft | 146 kts | 115° |
| 2026-04-30 12:23 | 55.57363 | 37.61182 | 2987 ft | 146 kts | 148° |
| 2026-04-30 12:23 | 55.56414 | 37.61705 | 2986 ft | 143 kts | 179° |
| 2026-04-30 12:23 | 55.55430 | 37.61524 | 2988 ft | 142 kts | 189° |
| 2026-04-30 12:23 | 55.54451 | 37.61312 | 2987 ft | 141 kts | 189° |
| 2026-04-30 12:24 | 55.53475 | 37.61088 | 3001 ft | 143 kts | 190° |
| 2026-04-30 12:24 | 55.52468 | 37.60855 | 3002 ft | 149 kts | 191° |
| 2026-04-30 12:24 | 55.51440 | 37.60547 | 2981 ft | 150 kts | 190° |
| 2026-04-30 12:24 | 55.50416 | 37.60276 | 2988 ft | 148 kts | 191° |
| 2026-04-30 12:25 | 55.49387 | 37.59987 | 2975 ft | 150 kts | 191° |
| 2026-04-30 12:25 | 55.48368 | 37.59704 | 2981 ft | 148 kts | 191° |
| 2026-04-30 12:25 | 55.47342 | 37.59411 | 2974 ft | 149 kts | 192° |
| 2026-04-30 12:25 | 55.46323 | 37.59123 | 2974 ft | 149 kts | 191° |
| 2026-04-30 12:26 | 55.45305 | 37.58841 | 2968 ft | 147 kts | 191° |
| 2026-04-30 12:26 | 55.44301 | 37.58556 | 2972 ft | 145 kts | 191° |
| 2026-04-30 12:26 | 55.43301 | 37.58274 | 2976 ft | 147 kts | 192° |
| 2026-04-30 12:26 | 55.42307 | 37.57996 | 2976 ft | 146 kts | 192° |
| 2026-04-30 12:27 | 55.41285 | 37.57706 | 2973 ft | 148 kts | 191° |
| 2026-04-30 12:27 | 55.40274 | 37.57421 | 2970 ft | 149 kts | 192° |
| 2026-04-30 12:27 | 55.39253 | 37.57136 | 2971 ft | 148 kts | 191° |
| 2026-04-30 12:27 | 55.38229 | 37.56848 | 3212 ft | 151 kts | 191° |
| 2026-04-30 12:28 | 55.37111 | 37.56530 | 3279 ft | 174 kts | 191° |
| 2026-04-30 12:28 | 55.35869 | 37.56183 | 3287 ft | 186 kts | 191° |
| 2026-04-30 12:28 | 55.34570 | 37.55820 | 3281 ft | 192 kts | 191° |
| 2026-04-30 12:28 | 55.33241 | 37.55450 | 3284 ft | 194 kts | 191° |
| 2026-04-30 12:29 | 55.31922 | 37.55079 | 3278 ft | 176 kts | 190° |
| 2026-04-30 12:29 | 55.30914 | 37.54804 | 3264 ft | 125 kts | 192° |
| 2026-04-30 12:29 | 55.30028 | 37.54555 | 3273 ft | 134 kts | 192° |
| 2026-04-30 12:29 | 55.29083 | 37.54338 | 3270 ft | 140 kts | 179° |
| 2026-04-30 12:30 | 55.28167 | 37.54969 | 3278 ft | 145 kts | 142° |
| 2026-04-30 12:30 | 55.27576 | 37.56362 | 3276 ft | 143 kts | 107° |
| 2026-04-30 12:30 | 55.27497 | 37.58086 | 3214 ft | 146 kts | 79° |
| 2026-04-30 12:30 | 55.27636 | 37.59817 | 2936 ft | 131 kts | 78° |
| 2026-04-30 12:31 | 55.27758 | 37.61372 | 2381 ft | 128 kts | 78° |
| 2026-04-30 12:31 | 55.27880 | 37.62902 | 1866 ft | 125 kts | 78° |
| 2026-04-30 12:31 | 55.27996 | 37.64395 | 1455 ft | 116 kts | 78° |
| 2026-04-30 12:31 | 55.28108 | 37.65820 | 1482 ft | 124 kts | 78° |
| 2026-04-30 12:32 | 55.28229 | 37.67379 | 1486 ft | 133 kts | 79° |
| 2026-04-30 12:32 | 55.28357 | 37.69023 | 1484 ft | 138 kts | 79° |
| 2026-04-30 12:32 | 55.28481 | 37.70654 | 1483 ft | 135 kts | 79° |
| 2026-04-30 12:32 | 55.28603 | 37.72252 | 1490 ft | 130 kts | 77° |
| 2026-04-30 12:33 | 55.28723 | 37.73809 | 1498 ft | 127 kts | 79° |
| 2026-04-30 12:33 | 55.28842 | 37.75347 | 1503 ft | 128 kts | 79° |
| 2026-04-30 12:33 | 55.28961 | 37.76898 | 1494 ft | 128 kts | 78° |
| 2026-04-30 12:33 | 55.29077 | 37.78438 | 1503 ft | 129 kts | 79° |
| 2026-04-30 12:34 | 55.29197 | 37.80000 | 1502 ft | 128 kts | 79° |
| 2026-04-30 12:34 | 55.29289 | 37.81186 | 1492 ft | 127 kts | 78° |
| 2026-04-30 12:34 | 55.29395 | 37.82614 | 1502 ft | 126 kts | 78° |
| 2026-04-30 12:34 | 55.29513 | 37.84147 | 1491 ft | 126 kts | 79° |
| 2026-04-30 12:35 | 55.29617 | 37.85644 | 1492 ft | 123 kts | 77° |
| 2026-04-30 12:35 | 55.29740 | 37.87122 | 1492 ft | 122 kts | 79° |
| 2026-04-30 12:35 | 55.29850 | 37.88583 | 1500 ft | 120 kts | 78° |
| 2026-04-30 12:35 | 55.29962 | 37.90051 | 1494 ft | 122 kts | 79° |
| 2026-04-30 12:36 | 55.30071 | 37.91535 | 1497 ft | 126 kts | 79° |
| 2026-04-30 12:36 | 55.30166 | 37.92786 | 1507 ft | 126 kts | 79° |
| 2026-04-30 12:36 | 55.30281 | 37.94317 | 1505 ft | 127 kts | 79° |
| 2026-04-30 12:36 | 55.30424 | 37.95808 | 1500 ft | 126 kts | 76° |
| 2026-04-30 12:37 | 55.30559 | 37.97378 | 1508 ft | 133 kts | 79° |
| 2026-04-30 12:37 | 55.30685 | 37.99008 | 1504 ft | 137 kts | 78° |
| 2026-04-30 12:37 | 55.30810 | 38.00661 | 1500 ft | 136 kts | 79° |
| 2026-04-30 12:37 | 55.30922 | 38.02143 | 1498 ft | 134 kts | 78° |
| 2026-04-30 12:38 | 55.31001 | 38.03216 | 1505 ft | 134 kts | 78° |
| 2026-04-30 12:38 | 55.31122 | 38.04846 | 1499 ft | 135 kts | 78° |
| 2026-04-30 12:38 | 55.31243 | 38.06482 | 1501 ft | 136 kts | 78° |
| 2026-04-30 12:38 | 55.31365 | 38.08134 | 1497 ft | 135 kts | 78° |
| 2026-04-30 12:39 | 55.31430 | 38.09015 | 1503 ft | 135 kts | 78° |
| 2026-04-30 12:39 | 55.31479 | 38.09658 | 1499 ft | 136 kts | 79° |
| 2026-04-30 12:39 | 55.31600 | 38.11320 | 1499 ft | 138 kts | 78° |
| 2026-04-30 12:39 | 55.31721 | 38.12987 | 1492 ft | 137 kts | 79° |
| 2026-04-30 12:40 | 55.31845 | 38.14645 | 1371 ft | 144 kts | 79° |
| 2026-04-30 12:40 | 55.31894 | 38.16380 | 1446 ft | 141 kts | 96° |
| 2026-04-30 12:40 | 55.31527 | 38.17930 | 1488 ft | 138 kts | 123° |
| 2026-04-30 12:40 | 55.30807 | 38.19042 | 1488 ft | 139 kts | 147° |
| 2026-04-30 12:41 | 55.30018 | 38.19962 | 1491 ft | 134 kts | 145° |
| 2026-04-30 12:41 | 55.29252 | 38.20874 | 1490 ft | 131 kts | 144° |
| 2026-04-30 12:41 | 55.28801 | 38.21411 | 1494 ft | 132 kts | 145° |
| 2026-04-30 12:41 | 55.28614 | 38.21634 | 1491 ft | 132 kts | 145° |
| 2026-04-30 12:42 | 55.27852 | 38.22561 | 1500 ft | 131 kts | 144° |
| 2026-04-30 12:42 | 55.27094 | 38.23468 | 1495 ft | 134 kts | 145° |
| 2026-04-30 12:42 | 55.26541 | 38.24129 | 1498 ft | 133 kts | 145° |
| 2026-04-30 12:42 | 55.25533 | 38.25340 | 1493 ft | 132 kts | 143° |
| 2026-04-30 12:43 | 55.25023 | 38.25961 | 1488 ft | 132 kts | 144° |
| 2026-04-30 12:43 | 55.24255 | 38.26884 | 1492 ft | 135 kts | 145° |
| 2026-04-30 12:43 | 55.23471 | 38.27821 | 1503 ft | 138 kts | 144° |
| 2026-04-30 12:43 | 55.22671 | 38.28781 | 1510 ft | 140 kts | 145° |
| 2026-04-30 12:44 | 55.21870 | 38.29741 | 1499 ft | 142 kts | 144° |
| 2026-04-30 12:44 | 55.21062 | 38.30707 | 1507 ft | 140 kts | 144° |
| 2026-04-30 12:44 | 55.20250 | 38.31675 | 1506 ft | 142 kts | 145° |
| 2026-04-30 12:44 | 55.19436 | 38.32655 | 1500 ft | 141 kts | 144° |
| 2026-04-30 12:45 | 55.18625 | 38.33621 | 1505 ft | 141 kts | 145° |
| 2026-04-30 12:45 | 55.17805 | 38.34590 | 1498 ft | 142 kts | 144° |
| 2026-04-30 12:45 | 55.16987 | 38.35573 | 1496 ft | 143 kts | 144° |
| 2026-04-30 12:45 | 55.16162 | 38.36555 | 1497 ft | 145 kts | 144° |
| 2026-04-30 12:46 | 55.15327 | 38.37552 | 1497 ft | 145 kts | 145° |
| 2026-04-30 12:46 | 55.14488 | 38.38551 | 1492 ft | 146 kts | 145° |
| 2026-04-30 12:46 | 55.13645 | 38.39555 | 1490 ft | 147 kts | 144° |
| 2026-04-30 12:46 | 55.12990 | 38.40878 | 1506 ft | 146 kts | 112° |
| 2026-04-30 12:47 | 55.12814 | 38.42582 | 1497 ft | 139 kts | 81° |
| 2026-04-30 12:47 | 55.13107 | 38.44129 | 1498 ft | 134 kts | 54° |
| 2026-04-30 12:47 | 55.13572 | 38.45542 | 1490 ft | 134 kts | 56° |
| 2026-04-30 12:47 | 55.14037 | 38.46992 | 1324 ft | 144 kts | 57° |
| 2026-04-30 12:48 | 55.14546 | 38.48581 | 1015 ft | 154 kts | 57° |
| 2026-04-30 12:48 | 55.15050 | 38.50166 | 1000 ft | 145 kts | 57° |
| 2026-04-30 12:48 | 55.15528 | 38.51651 | 982 ft | 136 kts | 58° |
| 2026-04-30 12:48 | 55.15981 | 38.53075 | 982 ft | 133 kts | 57° |
| 2026-04-30 12:49 | 55.16429 | 38.54471 | 981 ft | 131 kts | 57° |
| 2026-04-30 12:49 | 55.16871 | 38.55851 | 982 ft | 130 kts | 57° |
| 2026-04-30 12:49 | 55.17310 | 38.57228 | 999 ft | 129 kts | 58° |
| 2026-04-30 12:49 | 55.17738 | 38.58595 | 996 ft | 131 kts | 61° |
| 2026-04-30 12:50 | 55.18104 | 38.60077 | 983 ft | 135 kts | 67° |
| 2026-04-30 12:50 | 55.18391 | 38.61614 | 993 ft | 129 kts | 68° |
| 2026-04-30 12:50 | 55.18789 | 38.62949 | 895 ft | 124 kts | 48° |
| 2026-04-30 12:50 | 55.19311 | 38.64144 | 767 ft | 123 kts | 52° |
| 2026-04-30 12:51 | 55.19757 | 38.65404 | 657 ft | 118 kts | 52° |
| 2026-04-30 12:51 | 55.20190 | 38.66603 | 547 ft | 115 kts | 53° |
| 2026-04-30 12:51 | 55.20586 | 38.67711 | 424 ft | 70 kts | 55° |
| 2026-04-30 12:51 | 55.20760 | 38.68163 | 421 ft | 24 kts | 57° |
| 2026-04-30 12:52 | 55.20751 | 38.68198 | 417 ft | 13 kts | 241° |
| 2026-04-30 12:52 | 55.20649 | 38.67891 | 424 ft | 43 kts | 239° |
| 2026-04-30 12:52 | 55.20592 | 38.67699 | 427 ft | 9 kts | 288° |
| 2026-04-30 12:52 | 55.20643 | 38.67679 | 424 ft | 5 kts | 84° |
| 2026-04-30 12:53 | 55.20642 | 38.67722 | 422 ft | 0 kts | 165° |
| 2026-04-30 12:58 | 55.20650 | 38.67726 | 422 ft | 0 kts | 240° |
| 2026-04-30 12:59 | 55.20608 | 38.67679 | 427 ft | 16 kts | 148° |
| 2026-04-30 12:59 | 55.20641 | 38.67857 | 428 ft | 26 kts | 59° |
| 2026-04-30 12:59 | 55.20764 | 38.68192 | 424 ft | 42 kts | 60° |
| 2026-04-30 12:59 | 55.20793 | 38.68317 | 418 ft | 5 kts | 228° |
| 2026-04-30 13:00 | 55.20710 | 38.68058 | 426 ft | 58 kts | 238° |
| 2026-04-30 13:00 | 55.20379 | 38.67219 | 503 ft | 101 kts | 239° |
| 2026-04-30 13:00 | 55.19979 | 38.66054 | 656 ft | 121 kts | 248° |
| 2026-04-30 13:00 | 55.19615 | 38.64815 | 903 ft | 96 kts | 321° |
| 2026-04-30 13:01 | 55.19981 | 38.65787 | 731 ft | 133 kts | 69° |
| 2026-04-30 13:01 | 55.20397 | 38.67201 | 437 ft | 112 kts | 55° |
| 2026-04-30 13:01 | 55.20650 | 38.67882 | 428 ft | 10 kts | 58° |
| 2026-04-30 13:01 | 55.20652 | 38.67888 | 428 ft | 0 kts | 59° |
| 2026-04-30 13:02 | 55.20655 | 38.67896 | 428 ft | 11 kts | 62° |
| 2026-04-30 13:02 | 55.20733 | 38.68127 | 426 ft | 28 kts | 57° |
| 2026-04-30 13:02 | 55.20790 | 38.68305 | 424 ft | 10 kts | 87° |
| 2026-04-30 13:02 | 55.20801 | 38.68316 | 418 ft | 5 kts | 234° |
| 2026-04-30 13:03 | 55.20742 | 38.68143 | 426 ft | 45 kts | 237° |
| 2026-04-30 13:03 | 55.20444 | 38.67379 | 478 ft | 99 kts | 238° |
| 2026-04-30 13:03 | 55.20017 | 38.66226 | 655 ft | 128 kts | 238° |
| 2026-04-30 13:03 | 55.19332 | 38.65267 | 1069 ft | 120 kts | 216° |
| 2026-04-30 13:04 | 55.18758 | 38.64376 | 1499 ft | 95 kts | 263° |
| 2026-04-30 13:04 | 55.19132 | 38.63514 | 1331 ft | 129 kts | 9° |
| 2026-04-30 13:04 | 55.19619 | 38.64708 | 905 ft | 119 kts | 60° |
| 2026-04-30 13:04 | 55.20026 | 38.66187 | 909 ft | 128 kts | 63° |
| 2026-04-30 13:05 | 55.20497 | 38.67488 | 431 ft | 115 kts | 54° |
| 2026-04-30 13:05 | 55.20805 | 38.68305 | 434 ft | 83 kts | 50° |
| 2026-04-30 13:05 | 55.21228 | 38.69267 | 561 ft | 115 kts | 44° |
| 2026-04-30 13:06 | 55.21461 | 38.70612 | 1064 ft | 122 kts | 212° |
| 2026-04-30 13:06 | 55.21160 | 38.69403 | 631 ft | 110 kts | 253° |
| 2026-04-30 13:06 | 55.20796 | 38.68320 | 424 ft | 92 kts | 242° |
| 2026-04-30 13:06 | 55.20579 | 38.67687 | 427 ft | 66 kts | 236° |
| 2026-04-30 13:07 | 55.20204 | 38.66849 | 542 ft | 106 kts | 246° |
| 2026-04-30 13:07 | 55.19588 | 38.66068 | 617 ft | 120 kts | 270° |
| 2026-04-30 13:07 | 55.20058 | 38.66297 | 569 ft | 118 kts | 58° |
| 2026-04-30 13:07 | 55.20503 | 38.67501 | 429 ft | 103 kts | 54° |